createdAt,value
2019-01-24T00:02:39.824Z,33.27
2019-01-24T00:07:47.002Z,31.93
2019-01-24T00:12:54.236Z,32.10
2019-01-24T00:18:01.442Z,29.13
2019-01-24T00:23:13.671Z,26.57
2019-01-24T00:28:21.384Z,22.37
2019-01-24T00:33:29.463Z,21.83
2019-01-24T00:38:36.631Z,21.07
2019-01-24T00:43:44.450Z,26.70
2019-01-24T00:48:51.597Z,27.40
2019-01-24T00:53:58.788Z,29.97
2019-01-24T00:59:06.047Z,31.47
2019-01-24T01:04:13.629Z,29.47
2019-01-24T01:09:20.771Z,26.40
2019-01-24T01:14:27.948Z,22.53
2019-01-24T01:19:35.023Z,22.60
2019-01-24T01:24:42.274Z,23.20
2019-01-24T01:29:49.481Z,24.73
2019-01-24T01:39:59.825Z,23.00
2019-01-24T01:45:09.545Z,19.87
2019-01-24T01:50:19.421Z,22.57
2019-01-24T01:55:26.545Z,21.73
2019-01-24T02:00:34.912Z,21.87
2019-01-24T02:05:42.002Z,20.67
2019-01-24T02:10:49.300Z,19.20
2019-01-24T02:15:56.907Z,18.23
2019-01-24T02:21:04.826Z,21.27
2019-01-24T02:26:11.987Z,23.73
2019-01-24T02:31:19.317Z,19.77
2019-01-24T02:36:26.616Z,18.13
2019-01-24T02:41:33.802Z,16.53
2019-01-24T02:46:42.117Z,16.30
2019-01-24T02:51:49.735Z,15.27
2019-01-24T02:56:56.818Z,18.30
2019-01-24T03:02:03.943Z,18.30
2019-01-24T03:07:11.234Z,17.40
2019-01-24T03:12:18.426Z,18.50
2019-01-24T03:17:26.976Z,18.77
2019-01-24T03:22:34.273Z,18.57
2019-01-24T03:27:41.479Z,19.87
2019-01-24T03:32:48.917Z,19.23
2019-01-24T03:37:57.650Z,17.10
2019-01-24T03:43:05.962Z,16.07
2019-01-24T03:48:13.460Z,13.90
2019-01-24T03:53:20.654Z,13.43
2019-01-24T03:58:28.020Z,13.97
2019-01-24T04:03:35.470Z,13.48
2019-01-24T04:08:42.795Z,13.87
2019-01-24T04:13:50.028Z,14.40
2019-01-24T04:18:57.114Z,22.00
2019-01-24T04:24:04.737Z,31.43
2019-01-24T04:29:11.821Z,23.57
2019-01-24T04:34:18.932Z,22.30
2019-01-24T04:39:26.044Z,20.32
2019-01-24T04:44:33.179Z,23.98
2019-01-24T04:49:40.436Z,29.77
2019-01-24T04:54:47.947Z,28.53
2019-01-24T04:59:55.174Z,27.03
2019-01-24T05:05:02.385Z,27.77
2019-01-24T05:10:09.613Z,27.77
2019-01-24T05:15:17.015Z,24.87
2019-01-24T05:20:32.989Z,27.03
2019-01-24T05:25:40.092Z,24.10
2019-01-24T05:30:47.368Z,26.00
2019-01-24T05:35:55.022Z,24.40
2019-01-24T05:41:04.473Z,23.83
2019-01-24T05:46:11.534Z,21.77
2019-01-24T05:51:18.747Z,30.62
2019-01-24T05:56:25.926Z,43.05
2019-01-24T06:01:33.582Z,48.27
2019-01-24T06:06:41.891Z,56.33
2019-01-24T06:11:49.078Z,55.90
2019-01-24T06:16:56.514Z,44.70
2019-01-24T06:22:03.611Z,37.73
2019-01-24T06:27:10.697Z,41.93
2019-01-24T06:32:17.811Z,45.53
2019-01-24T06:37:24.907Z,43.67
2019-01-24T06:42:32.006Z,40.80
2019-01-24T06:47:39.194Z,47.40
2019-01-24T06:52:46.397Z,57.40
2019-01-24T06:57:53.453Z,45.00
2019-01-24T07:03:01.648Z,37.00
2019-01-24T07:08:08.838Z,47.07
2019-01-24T07:13:16.067Z,56.03
2019-01-24T07:18:23.334Z,61.40
2019-01-24T07:23:30.542Z,56.93
2019-01-24T07:28:37.619Z,50.13
2019-01-24T07:33:44.828Z,47.50
2019-01-24T07:38:52.010Z,49.67
2019-01-24T07:43:59.393Z,57.23
2019-01-24T07:49:06.952Z,49.30
2019-01-24T07:54:14.170Z,52.73
2019-01-24T07:59:22.007Z,49.07
2019-01-24T08:04:29.222Z,43.73
2019-01-24T08:09:36.323Z,43.47
2019-01-24T08:14:43.515Z,42.63
2019-01-24T08:19:50.579Z,39.47
2019-01-24T08:24:57.700Z,42.47
2019-01-24T08:30:09.298Z,27.13
2019-01-24T08:35:16.653Z,23.18
2019-01-24T08:40:24.075Z,25.77
2019-01-24T08:45:31.166Z,41.60
2019-01-24T08:50:38.235Z,28.07
2019-01-24T08:55:45.564Z,35.97
2019-01-24T09:00:52.647Z,23.30
2019-01-24T09:05:59.714Z,28.93
2019-01-24T09:11:07.893Z,27.00
2019-01-24T09:16:14.976Z,32.20
2019-01-24T09:21:22.388Z,30.30
2019-01-24T09:26:29.815Z,28.20
2019-01-24T09:31:37.025Z,23.10
2019-01-24T09:36:44.332Z,29.30
2019-01-24T09:41:51.487Z,33.60
2019-01-24T09:46:58.546Z,34.40
2019-01-24T09:52:06.165Z,26.37
2019-01-24T09:57:13.371Z,27.40
2019-01-24T10:02:20.544Z,23.18
2019-01-24T10:07:27.635Z,27.07
2019-01-24T10:12:35.358Z,26.40
2019-01-24T10:17:42.574Z,26.90
2019-01-24T10:22:49.987Z,25.53
2019-01-24T10:27:57.864Z,25.23
2019-01-24T10:33:06.110Z,26.20
2019-01-24T10:38:13.513Z,31.67
2019-01-24T10:43:20.622Z,30.00
2019-01-24T10:48:27.839Z,32.20
2019-01-24T10:53:35.140Z,32.00
2019-01-24T10:58:42.752Z,25.40
2019-01-24T11:03:49.826Z,28.00
2019-01-24T11:08:56.901Z,27.20
2019-01-24T11:14:04.135Z,25.93
2019-01-24T11:19:11.664Z,25.83
2019-01-24T11:24:18.743Z,32.93
2019-01-24T11:29:27.135Z,28.80
2019-01-24T11:34:34.345Z,33.03
2019-01-24T11:39:41.450Z,41.40
2019-01-24T11:44:50.564Z,29.93
2019-01-24T11:49:57.795Z,22.40
2019-01-24T11:55:05.412Z,35.53
2019-01-24T12:00:28.585Z,22.50
2019-01-24T12:05:35.788Z,19.87
2019-01-24T12:10:43.017Z,21.40
2019-01-24T12:15:50.646Z,21.13
2019-01-24T12:20:57.838Z,30.83
2019-01-24T12:26:09.014Z,26.90
2019-01-24T12:31:16.197Z,32.53
2019-01-24T12:36:23.674Z,36.40
2019-01-24T12:41:30.790Z,27.60
2019-01-24T12:46:37.843Z,23.13
2019-01-24T12:51:45.047Z,37.33
2019-01-24T12:56:52.270Z,43.23
2019-01-24T13:02:00.096Z,45.83
2019-01-24T13:07:07.918Z,42.80
2019-01-24T13:12:15.554Z,42.80
2019-01-24T13:17:23.323Z,37.37
2019-01-24T13:22:30.674Z,47.20
2019-01-24T13:27:38.168Z,28.23
2019-01-24T13:32:45.542Z,31.80
2019-01-24T13:37:52.729Z,31.33
2019-01-24T13:43:00.861Z,25.13
2019-01-24T13:48:08.177Z,30.10
2019-01-24T13:53:15.529Z,29.60
2019-01-24T13:58:22.725Z,32.30
2019-01-24T14:04:00.049Z,32.00
2019-01-24T14:09:10.388Z,30.00
2019-01-24T14:14:17.695Z,23.70
2019-01-24T14:19:24.798Z,27.13
2019-01-24T14:24:32.988Z,19.87
2019-01-24T14:29:40.199Z,19.53
2019-01-24T14:34:47.318Z,25.80
2019-01-24T14:39:55.942Z,46.03
2019-01-24T14:45:03.254Z,35.40
2019-01-24T14:50:13.511Z,83.42
2019-01-24T14:55:20.793Z,43.40
2019-01-24T15:00:30.335Z,135.70
2019-01-24T15:05:37.811Z,92.10
2019-01-24T15:10:45.073Z,30.87
2019-01-24T15:15:52.298Z,84.40
2019-01-24T15:20:59.470Z,46.27
2019-01-24T15:26:08.355Z,50.87
2019-01-24T15:31:16.067Z,46.40
2019-01-24T15:36:23.401Z,79.05
2019-01-24T15:41:30.793Z,50.63
2019-01-24T15:46:38.313Z,34.93
2019-01-24T15:51:45.760Z,27.03
2019-01-24T15:56:53.221Z,30.73
2019-01-24T16:02:00.408Z,27.63
2019-01-24T16:07:07.522Z,23.07
2019-01-24T16:12:14.649Z,26.93
2019-01-24T16:17:22.023Z,38.50
2019-01-24T16:22:29.693Z,31.77
2019-01-24T16:27:36.949Z,35.10
2019-01-24T16:32:44.442Z,39.37
2019-01-24T16:37:51.514Z,26.70
2019-01-24T16:42:59.074Z,32.20
2019-01-24T16:48:07.082Z,26.40
2019-01-24T16:53:14.513Z,28.30
2019-01-24T16:58:21.604Z,28.87
2019-01-24T17:03:28.814Z,42.33
2019-01-24T17:08:35.944Z,19.77
2019-01-24T17:13:43.160Z,27.50
2019-01-24T17:18:51.393Z,30.33
2019-01-24T17:23:59.579Z,28.70
2019-01-24T17:29:06.994Z,27.33
2019-01-24T17:34:14.111Z,34.30
2019-01-24T17:39:21.353Z,30.95
2019-01-24T17:44:28.456Z,30.33
2019-01-24T17:49:35.778Z,31.40
2019-01-24T17:54:43.171Z,36.67
2019-01-24T17:59:50.383Z,38.50
2019-01-24T18:04:57.667Z,37.77
2019-01-24T18:10:06.615Z,50.43
2019-01-24T18:15:17.955Z,61.67
2019-01-24T18:20:27.154Z,68.80
2019-01-24T18:25:34.390Z,80.37
2019-01-24T18:30:41.823Z,53.57
2019-01-24T18:35:49.384Z,55.47
2019-01-24T18:40:58.103Z,55.47
2019-01-24T18:46:07.229Z,51.13
2019-01-24T18:51:16.531Z,55.55
2019-01-24T18:56:23.953Z,44.03
2019-01-24T19:01:31.275Z,40.87
2019-01-24T19:06:38.485Z,34.97
2019-01-24T19:11:45.900Z,40.20
2019-01-24T19:16:54.001Z,32.47
2019-01-24T19:22:01.642Z,29.73
2019-01-24T19:27:10.992Z,36.43
2019-01-24T19:32:18.231Z,31.85
2019-01-24T19:37:25.491Z,36.50
2019-01-24T19:48:18.757Z,28.73
2019-01-24T19:53:26.359Z,31.40
2019-01-24T19:58:33.563Z,35.77
2019-01-24T20:03:41.124Z,32.20
2019-01-24T20:08:49.353Z,28.97
2019-01-24T20:13:56.668Z,29.73
2019-01-24T20:19:04.062Z,30.67
2019-01-24T20:24:12.031Z,27.02
2019-01-24T20:29:20.668Z,27.13
2019-01-24T20:34:27.973Z,30.60
2019-01-24T20:39:37.193Z,26.63
2019-01-24T20:44:44.551Z,30.43
2019-01-24T20:49:52.628Z,32.97
2019-01-24T20:54:59.855Z,30.77
2019-01-24T21:00:15.632Z,32.37
2019-01-24T21:05:23.459Z,27.57
2019-01-24T21:10:31.148Z,79.83
2019-01-24T21:15:38.264Z,60.10
2019-01-24T21:20:46.501Z,31.53
2019-01-24T21:25:53.805Z,30.35
2019-01-24T21:31:01.018Z,42.93
2019-01-24T21:36:08.937Z,32.80
2019-01-24T21:41:17.120Z,38.63
2019-01-24T21:46:24.672Z,49.77
2019-01-24T21:51:32.341Z,40.93
2019-01-24T21:56:39.537Z,45.40
2019-01-24T22:01:47.118Z,41.60
2019-01-24T22:06:56.248Z,37.00
2019-01-24T22:12:04.503Z,39.13
2019-01-24T22:17:11.627Z,39.53
2019-01-24T22:22:18.775Z,33.67
2019-01-24T22:27:26.251Z,36.60
2019-01-24T22:32:33.383Z,55.40
2019-01-24T22:37:41.094Z,39.67
2019-01-24T22:42:48.402Z,42.07
2019-01-24T22:47:55.715Z,35.50
2019-01-24T22:53:03.535Z,32.67
2019-01-24T22:58:10.861Z,34.33
2019-01-24T23:03:21.361Z,39.00
2019-01-24T23:08:28.838Z,36.93
2019-01-24T23:13:37.143Z,27.40
2019-01-24T23:18:44.432Z,27.60
2019-01-24T23:23:51.685Z,28.67
2019-01-24T23:29:00.585Z,26.93
2019-01-24T23:34:07.894Z,26.83
2019-01-24T23:39:15.046Z,24.37
2019-01-24T23:44:22.216Z,25.87
2019-01-24T23:49:29.352Z,21.00
2019-01-24T23:54:36.571Z,24.03
2019-01-24T23:59:43.703Z,26.90
